Time;durP1;ratioP1;P1;durP2;ratioP2;P2;SDS_P1;SDS_P2;PMS_P1;PMS_P2;Temp;Humidity;BMP_temperature;BMP_pressure;BME280_temperature;BME280_humidity;BME280_pressure;Samples;Min_cycle;Max_cycle;Signal;HPM_P1;HPM_P2
2023/04/22 00:02:03;;;;;;;10.68;7.88;;;;;;;7.71;92.01;100760.94;4962336;28;20043;-94
2023/04/22 00:04:29;;;;;;;10.27;7.63;;;;;;;7.70;92.19;100756.56;4960848;28;20716;-94
2023/04/22 00:06:55;;;;;;;11.32;7.88;;;;;;;7.70;92.16;100764.34;4961864;28;20057;-94
2023/04/22 00:09:20;;;;;;;11.48;8.40;;;;;;;7.68;91.68;100760.84;4961424;28;20551;-94
2023/04/22 00:11:46;;;;;;;10.85;7.88;;;;;;;7.66;91.76;100763.38;4979060;28;20026;-95
2023/04/22 00:14:11;;;;;;;11.40;7.80;;;;;;;7.63;91.61;100752.91;4959191;28;20018;-94
2023/04/22 00:16:37;;;;;;;11.05;7.78;;;;;;;7.65;91.83;100751.25;4977911;28;20500;-94
2023/04/22 00:19:03;;;;;;;10.65;7.45;;;;;;;7.64;92.02;100749.47;4960591;28;20058;-95
2023/04/22 00:21:29;;;;;;;12.75;8.40;;;;;;;7.63;91.94;100749.41;4958331;28;20031;-93
2023/04/22 00:23:54;;;;;;;7.78;5.75;;;;;;;7.62;91.83;100745.94;4977461;28;20050;-94
2023/04/22 00:26:19;;;;;;;11.35;6.70;;;;;;;7.62;92.79;100745.09;4960048;28;20058;-93
2023/04/22 00:28:45;;;;;;;10.15;6.22;;;;;;;7.56;92.22;100750.03;4979946;28;20072;-94
2023/04/22 00:31:10;;;;;;;14.00;6.97;;;;;;;7.55;92.43;100750.88;4980745;28;20100;-95
2023/04/22 00:33:36;;;;;;;10.98;6.47;;;;;;;7.52;92.82;100742.97;4979812;28;20361;-93
2023/04/22 00:36:01;;;;;;;10.70;6.35;;;;;;;7.51;92.06;100746.41;4977465;28;20065;-94
2023/04/22 00:38:26;;;;;;;8.10;5.53;;;;;;;7.44;92.07;100743.63;4960541;28;20579;-93
2023/04/22 00:40:52;;;;;;;7.65;5.60;;;;;;;7.39;91.99;100757.25;4977764;28;20480;-94
2023/04/22 00:43:17;;;;;;;9.00;6.00;;;;;;;7.37;92.17;100752.00;4977349;28;20038;-94
2023/04/22 00:45:43;;;;;;;8.38;6.20;;;;;;;7.37;92.39;100753.69;4978288;28;20026;-94
2023/04/22 00:48:09;;;;;;;9.15;6.47;;;;;;;7.35;92.36;100755.38;4978794;28;20023;-94
2023/04/22 00:50:34;;;;;;;9.13;6.95;;;;;;;7.36;92.15;100760.59;4978130;28;20081;-94
2023/04/22 00:53:00;;;;;;;11.07;8.00;;;;;;;7.36;92.50;100760.59;4977421;28;20125;-94
2023/04/22 00:55:25;;;;;;;11.57;8.20;;;;;;;7.36;92.94;100755.44;4977819;28;20026;-93
2023/04/22 00:57:53;;;;;;;10.73;8.30;;;;;;;7.36;93.07;100758.03;4976668;28;20033;-94
2023/04/22 01:00:22;;;;;;;11.02;7.95;;;;;;;7.38;93.27;100755.47;4976737;28;20026;-94
2023/04/22 01:02:48;;;;;;;10.10;7.60;;;;;;;7.39;92.82;100757.25;4960270;28;20743;-94
2023/04/22 01:05:13;;;;;;;10.30;7.30;;;;;;;7.39;92.53;100760.72;4959207;28;20030;-95
2023/04/22 01:07:38;;;;;;;10.40;7.32;;;;;;;7.38;92.42;100745.97;4976811;28;20034;-95
2023/04/22 01:10:05;;;;;;;9.88;7.20;;;;;;;7.37;93.07;100751.13;4977024;28;20065;-95
2023/04/22 01:12:30;;;;;;;9.15;6.80;;;;;;;7.36;93.73;100752.84;4977649;28;20112;-94
2023/04/22 01:14:55;;;;;;;8.05;5.78;;;;;;;7.36;94.14;100747.66;4959411;28;20552;-95
2023/04/22 01:17:23;;;;;;;9.80;7.50;;;;;;;7.38;94.53;100745.09;4960632;28;20123;-94
2023/04/22 01:19:48;;;;;;;9.23;7.00;;;;;;;7.38;93.84;100745.97;4960069;28;20035;-95
2023/04/22 01:22:14;;;;;;;10.75;7.40;;;;;;;7.39;94.34;100737.38;4960166;28;20113;-94
2023/04/22 01:24:40;;;;;;;9.65;7.18;;;;;;;7.39;94.00;100727.00;4958616;28;20023;-94
2023/04/22 01:27:06;;;;;;;11.05;7.68;;;;;;;7.41;94.51;100734.84;4980183;28;20035;-94
2023/04/22 01:29:31;;;;;;;11.05;7.65;;;;;;;7.42;95.10;100736.63;4962831;28;20037;-94
2023/04/22 01:31:57;;;;;;;11.38;8.05;;;;;;;7.43;95.14;100738.34;4983003;28;20484;-95
2023/04/22 01:34:22;;;;;;;11.43;8.23;;;;;;;7.42;94.94;100734.91;4968087;28;20504;-95
2023/04/22 01:36:49;;;;;;;10.68;7.15;;;;;;;7.42;94.95;100731.44;4962919;28;20441;-94
2023/04/22 01:39:14;;;;;;;10.65;7.78;;;;;;;7.43;95.45;100739.25;4964827;28;20179;-95
2023/04/22 01:41:40;;;;;;;11.43;8.00;;;;;;;7.44;95.01;100737.53;4963035;28;20559;-94
2023/04/22 01:44:05;;;;;;;10.88;7.78;;;;;;;7.44;95.37;100734.94;4961895;28;20037;-94
2023/04/22 01:46:32;;;;;;;11.73;7.82;;;;;;;7.43;95.11;100734.06;4962830;28;20068;-95
2023/04/22 01:48:57;;;;;;;11.95;8.00;;;;;;;7.46;95.32;100736.78;4963923;28;20061;-95
2023/04/22 01:51:23;;;;;;;11.52;8.05;;;;;;;7.49;95.13;100736.00;4962778;28;20525;-94
2023/04/22 01:53:48;;;;;;;10.43;7.85;;;;;;;7.49;94.74;100729.09;4962559;28;20023;-95
2023/04/22 01:56:14;;;;;;;11.20;7.72;;;;;;;7.52;94.96;100727.41;4981013;28;20563;-94
2023/04/22 01:58:40;;;;;;;10.25;7.28;;;;;;;7.54;95.05;100721.47;4962682;28;20034;-95
2023/04/22 02:01:07;;;;;;;9.35;6.78;;;;;;;7.57;94.38;100718.09;4963230;28;20034;-95
2023/04/22 02:03:32;;;;;;;9.45;6.53;;;;;;;7.56;93.64;100718.91;4963290;28;20068;-95
2023/04/22 02:05:58;;;;;;;8.20;5.93;;;;;;;7.59;93.40;100719.00;4963128;28;20468;-94
2023/04/22 02:08:23;;;;;;;9.38;6.45;;;;;;;7.59;93.84;100729.38;4979386;28;20038;-95
2023/04/22 02:10:48;;;;;;;9.40;6.38;;;;;;;7.58;94.03;100728.53;4960372;28;20018;-94
2023/04/22 02:13:14;;;;;;;9.48;6.55;;;;;;;7.59;93.45;100730.28;4962542;28;20034;-94
2023/04/22 02:15:40;;;;;;;7.20;5.72;;;;;;;7.56;93.35;100729.28;4961981;28;20200;-94
2023/04/22 02:18:05;;;;;;;9.07;5.75;;;;;;;7.53;93.60;100732.69;4962680;28;20046;-95
2023/04/22 02:20:31;;;;;;;8.20;5.57;;;;;;;7.51;94.03;100730.88;4962184;28;20611;-95
2023/04/22 02:22:56;;;;;;;7.88;6.07;;;;;;;7.49;93.96;100729.09;4962989;28;20607;-95
2023/04/22 02:25:22;;;;;;;7.40;5.47;;;;;;;7.47;94.08;100716.91;4961386;28;20500;-94
2023/04/22 02:27:47;;;;;;;9.43;6.28;;;;;;;7.45;94.74;100722.03;4962265;28;20122;-95
2023/04/22 02:30:12;;;;;;;10.23;7.20;;;;;;;7.43;94.97;100721.13;4959924;28;20472;-94
2023/04/22 02:32:38;;;;;;;10.40;7.18;;;;;;;7.46;94.72;100720.34;4962849;28;20026;-94
2023/04/22 02:35:05;;;;;;;10.95;7.93;;;;;;;7.46;94.88;100712.56;4962677;28;20072;-95
2023/04/22 02:37:30;;;;;;;10.65;7.93;;;;;;;7.50;95.27;100709.22;4965280;28;20480;-94
2023/04/22 02:39:55;;;;;;;11.00;8.13;;;;;;;7.48;95.15;100711.75;4989693;28;20154;-94
2023/04/22 02:42:21;;;;;;;11.80;8.30;;;;;;;7.53;95.37;100711.03;4972898;28;20180;-94
2023/04/22 02:44:46;;;;;;;11.75;8.65;;;;;;;7.51;95.91;100704.94;4972965;28;20022;-93
2023/04/22 02:47:12;;;;;;;10.80;7.75;;;;;;;7.48;96.23;100706.56;4971549;28;20053;-94
2023/04/22 02:49:37;;;;;;;11.50;7.32;;;;;;;7.48;96.36;100709.16;4971655;28;20034;-93
2023/04/22 02:52:02;;;;;;;11.05;7.70;;;;;;;7.46;95.89;100702.19;4970902;28;20033;-94
2023/04/22 02:54:28;;;;;;;10.05;7.10;;;;;;;7.44;96.17;100703.84;4968839;28;20775;-94
2023/04/22 02:56:53;;;;;;;11.20;7.43;;;;;;;7.39;96.04;100698.50;4989974;28;20030;-93
2023/04/22 02:59:18;;;;;;;10.27;7.32;;;;;;;7.39;96.88;100701.09;4971049;28;20041;-94
2023/04/22 03:01:44;;;;;;;10.93;7.70;;;;;;;7.41;96.68;100694.22;4970824;28;20038;-94
2023/04/22 03:04:11;;;;;;;10.05;7.72;;;;;;;7.43;96.61;100696.88;4970139;28;20030;-93
2023/04/22 03:06:36;;;;;;;12.20;8.13;;;;;;;7.44;96.80;100702.16;4969876;28;20080;-95
2023/04/22 03:09:01;;;;;;;12.57;8.48;;;;;;;7.46;97.25;100697.88;4988083;28;20034;-94
2023/04/22 03:11:27;;;;;;;11.85;8.43;;;;;;;7.48;97.25;100696.22;4987895;28;20194;-94
2023/04/22 03:13:52;;;;;;;11.90;8.82;;;;;;;7.49;97.01;100697.97;4970129;28;20109;-94
2023/04/22 03:16:18;;;;;;;12.10;8.48;;;;;;;7.51;96.80;100694.56;4989589;28;20029;-95
2023/04/22 03:18:43;;;;;;;11.18;8.52;;;;;;;7.51;97.00;100686.78;4983206;28;20022;-93
2023/04/22 03:21:08;;;;;;;11.98;8.80;;;;;;;7.51;97.04;100682.47;4970760;28;20029;-95
2023/04/22 03:23:34;;;;;;;12.45;9.52;;;;;;;7.49;96.14;100682.44;4972004;28;20468;-94
2023/04/22 03:26:00;;;;;;;13.00;9.43;;;;;;;7.48;96.25;100683.25;4970020;28;20040;-94
2023/04/22 03:28:25;;;;;;;12.05;8.82;;;;;;;7.45;96.55;100677.97;4987695;28;20030;-95
2023/04/22 03:30:51;;;;;;;11.68;8.75;;;;;;;7.43;96.39;100677.03;4968601;28;20022;-95
2023/04/22 03:33:17;;;;;;;12.05;8.85;;;;;;;7.42;96.81;100671.81;4970724;28;20042;-94
2023/04/22 03:35:42;;;;;;;11.68;9.00;;;;;;;7.41;96.61;100673.50;4971058;28;20495;-94
2023/04/22 03:38:07;;;;;;;12.65;9.27;;;;;;;7.40;96.50;100669.16;4969031;28;20050;-94
2023/04/22 03:40:33;;;;;;;12.93;9.75;;;;;;;7.39;96.31;100671.72;4971088;28;20039;-94
2023/04/22 03:42:58;;;;;;;12.02;8.98;;;;;;;7.37;96.72;100658.69;4970051;28;20030;-94
2023/04/22 03:45:23;;;;;;;11.98;9.07;;;;;;;7.39;96.17;100662.22;4989018;28;20018;-94
2023/04/22 03:47:49;;;;;;;11.60;8.20;;;;;;;7.38;96.12;100663.03;4990059;28;20112;-93
2023/04/22 03:50:14;;;;;;;11.70;8.40;;;;;;;7.39;95.83;100662.22;4970106;28;20031;-94
2023/04/22 03:52:40;;;;;;;10.55;7.75;;;;;;;7.39;96.22;100648.38;4969833;28;20026;-94
2023/04/22 03:55:05;;;;;;;10.07;7.40;;;;;;;7.38;96.05;100642.28;4969647;28;20060;-94
2023/04/22 03:57:30;;;;;;;9.48;7.45;;;;;;;7.40;95.60;100648.44;4971816;28;20084;-95
2023/04/22 03:59:56;;;;;;;9.25;7.13;;;;;;;7.40;96.12;100643.25;4987977;28;20053;-94
2023/04/22 04:02:21;;;;;;;8.75;7.03;;;;;;;7.39;95.87;100641.47;4969406;28;20032;-93
2023/04/22 04:04:46;;;;;;;8.73;6.32;;;;;;;7.39;95.85;100644.06;4970433;28;20061;-94
2023/04/22 04:07:12;;;;;;;9.30;7.60;;;;;;;7.36;96.00;100651.75;4969937;28;20050;-94
2023/04/22 04:09:37;;;;;;;9.98;7.43;;;;;;;7.37;95.93;100637.97;4987566;28;20116;-95
2023/04/22 04:12:03;;;;;;;8.93;7.10;;;;;;;7.34;95.90;100636.97;4970099;28;20088;-94
2023/04/22 04:14:28;;;;;;;10.23;7.72;;;;;;;7.32;96.55;100642.09;4969652;28;20028;-94
2023/04/22 04:16:54;;;;;;;10.38;7.95;;;;;;;7.34;96.39;100648.19;4970017;28;20104;-95
2023/04/22 04:19:19;;;;;;;10.35;7.93;;;;;;;7.34;95.96;100639.56;4987262;28;20118;-94
2023/04/22 04:21:45;;;;;;;10.88;8.35;;;;;;;7.32;96.28;100642.97;4989310;28;20029;-94
2023/04/22 04:24:10;;;;;;;12.52;8.70;;;;;;;7.34;96.35;100639.56;4968082;28;20037;-94
2023/04/22 04:26:36;;;;;;;10.38;8.13;;;;;;;7.34;97.02;100630.06;4970481;28;20026;-94
2023/04/22 04:29:02;;;;;;;10.73;8.25;;;;;;;7.34;96.01;100636.97;4988491;28;20014;-95
2023/04/22 04:31:27;;;;;;;9.88;7.57;;;;;;;7.33;96.31;100636.09;4969339;28;20381;-94
2023/04/22 04:33:53;;;;;;;10.35;7.68;;;;;;;7.30;96.74;100628.22;4970232;28;20037;-94
2023/04/22 04:36:18;;;;;;;10.82;8.20;;;;;;;7.30;96.85;100641.19;4987591;28;20136;-94
2023/04/22 04:38:44;;;;;;;11.45;9.00;;;;;;;7.28;97.45;100629.88;4969718;28;20628;-95
2023/04/22 04:41:09;;;;;;;12.00;9.30;;;;;;;7.27;97.59;100643.66;4969270;28;20594;-94
2023/04/22 04:43:35;;;;;;;19.23;12.32;;;;;;;7.25;97.42;100632.34;4969707;28;20100;-95
2023/04/22 04:46:00;;;;;;;23.95;13.77;;;;;;;7.26;97.61;100634.13;4969209;28;20031;-94
2023/04/22 04:48:25;;;;;;;25.20;13.55;;;;;;;7.26;97.91;100637.59;4967400;28;20030;-95
2023/04/22 04:50:52;;;;;;;24.83;14.65;;;;;;;7.31;97.96;100640.31;4969477;28;20072;-95
2023/04/22 04:53:20;;;;;;;23.02;14.27;;;;;;;7.33;98.17;100646.47;4969490;28;20392;-95
2023/04/22 04:55:45;;;;;;;21.60;12.95;;;;;;;7.34;97.33;100644.75;4970341;28;20022;-96
2023/04/22 04:58:11;;;;;;;21.17;12.75;;;;;;;7.36;97.05;100643.97;4970454;28;20033;-94
2023/04/22 05:00:36;;;;;;;21.85;13.50;;;;;;;7.36;97.36;100648.25;4967872;28;20062;-95
2023/04/22 05:03:02;;;;;;;21.90;13.30;;;;;;;7.36;98.06;100643.06;4968480;28;20031;-95
2023/04/22 05:05:28;;;;;;;22.65;14.40;;;;;;;7.34;98.30;100640.44;4969395;28;20040;-94
2023/04/22 05:07:53;;;;;;;20.20;12.77;;;;;;;7.31;98.27;100628.28;4970597;28;20506;-95
2023/04/22 05:10:19;;;;;;;15.40;10.05;;;;;;;7.31;98.63;100643.81;4970023;28;20032;-95
2023/04/22 05:12:46;;;;;;;12.55;8.25;;;;;;;7.30;98.50;100643.78;4969948;28;20558;-95
2023/04/22 05:15:12;;;;;;;11.50;8.70;;;;;;;7.32;98.76;100634.31;4967978;28;20022;-95
2023/04/22 05:17:38;;;;;;;12.63;9.10;;;;;;;7.35;98.95;100634.41;4968753;28;20053;-95
2023/04/22 05:20:03;;;;;;;12.38;8.85;;;;;;;7.38;98.57;100626.75;4969294;28;20448;-95
2023/04/22 05:22:29;;;;;;;14.10;10.18;;;;;;;7.38;98.65;100618.09;4970520;28;20128;-94
2023/04/22 05:24:54;;;;;;;14.65;10.43;;;;;;;7.40;98.80;100635.47;4969900;28;20026;-96
2023/04/22 05:27:20;;;;;;;17.00;12.35;;;;;;;7.43;98.85;100630.38;4969355;28;20030;-94
2023/04/22 05:29:45;;;;;;;17.20;11.38;;;;;;;7.47;99.13;100642.63;4987040;28;20211;-94
2023/04/22 05:32:13;;;;;;;15.40;11.70;;;;;;;7.52;99.03;100636.69;4968767;28;20129;-95
2023/04/22 05:34:38;;;;;;;15.85;11.45;;;;;;;7.56;99.06;100639.44;4968080;28;20105;-95
2023/04/22 05:37:04;;;;;;;15.82;11.20;;;;;;;7.60;98.99;100632.63;4969396;28;20540;-95
2023/04/22 05:39:30;;;;;;;15.40;10.82;;;;;;;7.67;99.25;100626.81;4959845;28;20049;-95
2023/04/22 05:41:55;;;;;;;16.58;11.00;;;;;;;7.71;99.06;100628.69;4957969;28;20042;-94
2023/04/22 05:44:20;;;;;;;13.65;10.15;;;;;;;7.71;99.07;100627.81;4958164;28;20366;-94
2023/04/22 05:46:46;;;;;;;15.20;10.82;;;;;;;7.71;99.42;100625.22;4958600;28;20070;-94
2023/04/22 05:49:11;;;;;;;14.90;10.57;;;;;;;7.72;99.83;100635.63;4958799;28;20038;-95
2023/04/22 05:51:37;;;;;;;15.57;11.23;;;;;;;7.74;100.00;100633.94;4958138;28;20056;-94
2023/04/22 05:54:02;;;;;;;16.83;11.82;;;;;;;7.75;100.00;100629.63;4960099;28;20097;-95
2023/04/22 05:56:27;;;;;;;16.58;11.02;;;;;;;7.79;100.00;100635.00;4960163;28;20515;-94
2023/04/22 05:58:53;;;;;;;16.23;12.18;;;;;;;7.83;100.00;100633.34;4956526;28;20042;-94
2023/04/22 06:01:18;;;;;;;15.68;12.05;;;;;;;7.88;100.00;100618.84;4962175;28;20468;-94
2023/04/22 06:03:43;;;;;;;16.77;11.65;;;;;;;7.91;100.00;100618.91;4960828;28;20488;-95
2023/04/22 06:06:09;;;;;;;15.50;11.30;;;;;;;7.94;100.00;100628.53;4956143;28;20498;-94
2023/04/22 06:08:34;;;;;;;15.55;11.20;;;;;;;8.00;100.00;100623.50;4960109;28;20114;-95
2023/04/22 06:10:59;;;;;;;16.50;12.20;;;;;;;8.08;100.00;100628.94;4961513;28;20484;-94
2023/04/22 06:13:26;;;;;;;17.27;12.07;;;;;;;8.12;100.00;100629.06;4963487;28;20048;-95
2023/04/22 06:15:51;;;;;;;16.75;12.57;;;;;;;8.19;100.00;100623.22;4961728;28;20026;-95
2023/04/22 06:18:17;;;;;;;21.55;16.33;;;;;;;8.26;100.00;100634.66;4963280;28;20538;-95
2023/04/22 06:20:42;;;;;;;21.67;16.13;;;;;;;8.31;100.00;100632.19;4962194;28;20034;-94
2023/04/22 06:23:07;;;;;;;22.73;16.95;;;;;;;8.35;100.00;100621.06;4966239;28;20443;-94
2023/04/22 06:25:33;;;;;;;21.98;17.13;;;;;;;8.42;100.00;100617.81;4962758;28;20305;-95
2023/04/22 06:27:58;;;;;;;22.67;17.58;;;;;;;8.56;100.00;100612.16;4962558;28;20048;-95
2023/04/22 06:30:24;;;;;;;21.83;17.77;;;;;;;8.68;100.00;100618.59;4962158;28;20034;-94
2023/04/22 06:32:50;;;;;;;24.88;18.00;;;;;;;8.80;100.00;100607.63;4962274;28;20034;-94
2023/04/22 06:35:16;;;;;;;23.85;18.50;;;;;;;8.94;100.00;100618.41;4977416;28;20026;-95
2023/04/22 06:37:41;;;;;;;25.40;19.80;;;;;;;9.06;100.00;100617.84;4963171;28;20038;-95
2023/04/22 06:40:08;;;;;;;25.42;20.15;;;;;;;9.19;100.00;100614.72;4971909;28;20018;-94
2023/04/22 06:42:33;;;;;;;25.45;18.42;;;;;;;9.33;100.00;100611.63;4972235;28;20030;-95
2023/04/22 06:44:58;;;;;;;25.05;19.02;;;;;;;9.43;100.00;100608.41;4970486;28;20026;-94
2023/04/22 06:47:24;;;;;;;25.65;19.80;;;;;;;9.62;100.00;100606.25;4971485;28;20030;-95
2023/04/22 06:49:49;;;;;;;25.30;18.23;;;;;;;9.74;100.00;100590.91;4989760;28;20050;-95
2023/04/22 06:52:14;;;;;;;24.45;18.42;;;;;;;9.83;100.00;100588.50;4970605;28;20505;-95
2023/04/22 06:54:40;;;;;;;23.73;17.48;;;;;;;9.90;100.00;100585.19;4969878;28;20049;-95
2023/04/22 06:57:06;;;;;;;23.90;18.77;;;;;;;9.96;100.00;100594.84;4972001;28;20026;-94
2023/04/22 06:59:32;;;;;;;22.98;17.50;;;;;;;10.01;100.00;100602.78;4989429;28;20088;-94
2023/04/22 07:01:57;;;;;;;22.17;16.75;;;;;;;10.07;100.00;100602.91;4971526;28;20026;-95
2023/04/22 07:04:22;;;;;;;22.95;17.83;;;;;;;10.18;100.00;100593.63;4970791;28;20058;-95
2023/04/22 07:06:48;;;;;;;23.08;17.35;;;;;;;10.32;100.00;100598.22;4990573;28;20034;-94
2023/04/22 07:09:13;;;;;;;23.45;16.52;;;;;;;10.44;100.00;100604.59;4989066;28;20026;-95
2023/04/22 07:11:39;;;;;;;24.58;17.48;;;;;;;10.54;100.00;100597.84;4971089;28;20096;-95
2023/04/22 07:14:04;;;;;;;23.02;17.02;;;;;;;10.69;100.00;100598.97;4989854;28;20527;-94
2023/04/22 07:16:29;;;;;;;22.85;16.70;;;;;;;10.78;98.30;100589.59;4988410;28;20488;-94
2023/04/22 07:18:55;;;;;;;22.30;16.52;;;;;;;10.81;98.07;100590.53;4990207;28;20022;-95
2023/04/22 07:21:20;;;;;;;25.30;17.50;;;;;;;10.80;98.89;100587.03;4968853;28;20034;-96
2023/04/22 07:23:45;;;;;;;28.70;18.58;;;;;;;10.84;99.76;100582.75;4987508;28;20091;-95
2023/04/22 07:26:11;;;;;;;26.55;18.27;;;;;;;10.89;99.95;100589.81;4970308;28;20122;-94
2023/04/22 07:28:36;;;;;;;26.52;18.48;;;;;;;10.92;98.42;100594.19;4970594;28;20072;-96
2023/04/22 07:31:02;;;;;;;27.80;19.20;;;;;;;10.99;99.85;100600.41;4989182;28;20022;-95
2023/04/22 07:33:27;;;;;;;27.08;19.40;;;;;;;11.13;99.98;100588.47;4971508;28;20042;-96
2023/04/22 07:35:52;;;;;;;27.02;19.50;;;;;;;11.27;98.98;100596.56;4987640;28;20102;-95
2023/04/22 07:38:18;;;;;;;27.10;18.90;;;;;;;11.36;98.49;100593.22;4970975;28;20081;-95
2023/04/22 07:40:43;;;;;;;29.98;20.40;;;;;;;11.49;98.99;100588.19;4970147;28;20113;-95
2023/04/22 07:43:08;;;;;;;30.83;21.17;;;;;;;11.65;97.88;100586.69;4989058;28;20472;-95
2023/04/22 07:45:34;;;;;;;31.50;21.23;;;;;;;11.85;97.50;100596.56;4988684;28;20550;-95
2023/04/22 07:47:59;;;;;;;31.48;20.70;;;;;;;11.95;96.21;100602.84;4990049;28;20045;-95
2023/04/22 07:50:25;;;;;;;31.55;21.52;;;;;;;12.04;95.30;100609.91;4987933;28;20034;-96
2023/04/22 07:52:50;;;;;;;32.80;21.58;;;;;;;12.04;95.17;100597.72;4987613;28;20030;-96
2023/04/22 07:55:15;;;;;;;35.10;22.70;;;;;;;12.04;95.30;100578.59;4969944;28;20045;-94
2023/04/22 07:57:41;;;;;;;34.05;22.27;;;;;;;12.07;97.84;100574.25;4989834;28;20034;-95
2023/04/22 08:02:42;;;;;;;34.45;22.80;;;;;;;12.30;96.28;100573.69;4836236;23;20084;-96
2023/04/22 08:05:08;;;;;;;36.40;22.42;;;;;;;12.37;93.63;100567.69;4972220;28;20023;-96
2023/04/22 08:07:33;;;;;;;36.08;23.02;;;;;;;12.45;95.03;100560.78;4963551;28;20034;-96
2023/04/22 08:09:59;;;;;;;35.42;22.63;;;;;;;12.56;94.66;100558.31;4967714;28;20166;-96
2023/04/22 08:12:24;;;;;;;33.55;21.77;;;;;;;12.62;92.33;100550.53;4960062;28;20137;-93
2023/04/22 08:14:50;;;;;;;33.90;21.55;;;;;;;12.67;92.41;100554.06;4976973;28;20385;-95
2023/04/22 08:17:16;;;;;;;33.78;21.63;;;;;;;12.74;93.67;100543.66;4959348;28;20404;-95
2023/04/22 08:19:41;;;;;;;32.15;20.48;;;;;;;12.88;91.72;100549.91;4959632;28;20037;-95
2023/04/22 08:22:06;;;;;;;33.13;20.80;;;;;;;13.01;92.34;100551.75;4976378;28;20488;-95
2023/04/22 08:24:32;;;;;;;32.97;20.73;;;;;;;13.16;91.83;100547.53;4959882;28;20066;-95
2023/04/22 08:26:57;;;;;;;32.25;20.65;;;;;;;13.27;89.87;100545.00;4957882;28;20027;-94
2023/04/22 08:29:23;;;;;;;30.08;20.65;;;;;;;13.31;90.20;100542.44;4958941;28;20015;-95
2023/04/22 08:31:48;;;;;;;27.42;17.50;;;;;;;13.31;87.75;100542.44;4957248;28;20511;-96
2023/04/22 08:34:14;;;;;;;28.05;15.90;;;;;;;13.34;86.37;100541.59;4959307;28;20456;-95
2023/04/22 08:36:39;;;;;;;25.27;15.68;;;;;;;13.35;87.71;100544.25;4959253;28;20038;-94
2023/04/22 08:39:04;;;;;;;25.73;16.45;;;;;;;13.43;88.12;100543.41;4958703;28;20045;-95
2023/04/22 08:41:34;;;;;;;23.83;15.35;;;;;;;13.54;86.84;100537.38;4959101;28;20026;-95
2023/04/22 08:44:00;;;;;;;24.60;15.07;;;;;;;13.72;86.60;100526.13;4976584;28;20468;-95
2023/04/22 08:46:27;;;;;;;24.27;15.98;;;;;;;13.93;85.91;100507.91;4957389;28;20040;-95
2023/04/22 08:48:53;;;;;;;21.63;15.15;;;;;;;14.08;84.90;100507.97;4976094;28;20037;-96
2023/04/22 08:51:18;;;;;;;25.17;14.60;;;;;;;14.24;86.58;100506.28;4959153;28;20033;-95
2023/04/22 08:53:44;;;;;;;20.75;14.38;;;;;;;14.43;88.25;100497.59;4974058;28;20022;-95
2023/04/22 08:56:11;;;;;;;23.48;14.68;;;;;;;14.63;86.25;100493.28;4955897;28;20173;-95
2023/04/22 08:58:40;;;;;;;19.23;13.52;;;;;;;14.77;82.21;100508.16;4974785;28;20089;-95
2023/04/22 09:01:06;;;;;;;20.85;12.27;;;;;;;14.84;78.68;100500.28;4973411;28;20022;-94
2023/04/22 09:06:10;;;;;;;16.83;11.65;;;;;;;14.81;79.00;100497.69;4983142;26;20065;-93
2023/04/22 09:08:35;;;;;;;16.58;11.35;;;;;;;14.90;80.88;100508.16;4984957;28;20030;-91
2023/04/22 09:13:33;;;;;;;17.48;11.32;;;;;;;15.00;77.44;100498.53;5214752;23;20058;-69
2023/04/22 09:15:58;;;;;;;14.30;10.32;;;;;;;15.03;78.89;100499.41;5160971;23;20058;-69
2023/04/22 09:18:24;;;;;;;15.65;10.55;;;;;;;15.09;78.07;100496.81;5041124;23;20059;-69
2023/04/22 09:20:54;;;;;;;14.35;10.55;;;;;;;15.16;77.58;100494.16;5141483;23;20609;-70
2023/04/22 09:23:20;;;;;;;15.57;10.52;;;;;;;15.16;76.54;100502.91;5150134;23;20055;-69
2023/04/22 09:25:46;;;;;;;14.95;10.52;;;;;;;15.17;76.11;100496.78;5253892;23;20228;-68
2023/04/22 09:28:17;;;;;;;16.52;10.50;;;;;;;15.23;77.40;100499.41;5181964;23;20077;-69
2023/04/22 09:30:44;;;;;;;15.20;10.77;;;;;;;15.38;78.28;100493.28;5133816;23;20482;-69
2023/04/22 09:33:10;;;;;;;14.15;10.20;;;;;;;15.56;76.56;100492.34;4992543;28;20026;-69
2023/04/22 09:35:36;;;;;;;13.55;10.10;;;;;;;15.64;76.68;100489.69;5076496;23;20058;-69
2023/04/22 09:38:07;;;;;;;13.77;10.35;;;;;;;15.73;75.32;100479.16;5162087;23;20562;-69
2023/04/22 09:45:40;;;;;;;14.38;10.10;;;;;;;16.29;76.08;100482.44;4947335;23;20359;-69
2023/04/22 09:48:08;;;;;;;15.57;10.18;;;;;;;16.43;74.53;100484.97;5173558;23;20173;-69
2023/04/22 09:55:42;;;;;;;15.23;10.60;;;;;;;16.60;74.42;100494.53;5118228;23;20054;-69
2023/04/22 09:58:08;;;;;;;;;;;;;;;16.66;74.98;100483.97;5378934;23;20131;-69
2023/04/22 10:00:40;;;;;;;12.82;8.68;;;;;;;16.71;73.58;100487.41;5120147;23;19926;-96
2023/04/22 10:03:06;;;;;;;12.90;10.07;;;;;;;16.79;71.50;100477.72;5193891;23;20062;-69
2023/04/22 10:08:01;;;;;;;11.70;9.05;;;;;;;16.86;70.75;100492.56;5030500;23;20138;-68
2023/04/22 10:10:27;;;;;;;12.18;9.80;;;;;;;16.76;70.64;100490.03;4990679;23;20050;-93
2023/04/22 10:12:52;;;;;;;12.20;9.88;;;;;;;16.88;72.80;100483.81;4978945;28;20535;-96
2023/04/22 10:15:18;;;;;;;11.65;8.63;;;;;;;17.17;74.84;100476.53;4963117;28;20034;-96
2023/04/22 10:17:45;;;;;;;14.48;9.63;;;;;;;17.33;69.90;100500.94;4958376;28;20601;-95
2023/04/22 10:20:16;;;;;;;13.75;10.02;;;;;;;17.51;70.55;100491.09;4955677;28;20101;-96
2023/04/22 10:22:42;;;;;;;12.57;9.50;;;;;;;17.51;70.27;100513.06;4958552;28;20089;-95
2023/04/22 10:25:22;;;;;;;12.23;9.90;;;;;;;17.40;70.27;100499.13;4957813;28;20776;-96
2023/04/22 10:28:02;;;;;;;12.38;9.18;;;;;;;17.53;71.39;100498.09;4965489;28;20027;-95
2023/04/22 10:30:35;;;;;;;12.30;9.65;;;;;;;17.54;70.68;100493.72;4959788;28;20088;-96
2023/04/22 10:36:18;;;;;;;13.27;8.75;;;;;;;17.60;70.44;100492.75;4976912;28;20784;-96
2023/04/22 10:39:12;;;;;;;11.32;8.55;;;;;;;17.66;67.94;100492.72;4960957;28;20030;-96
2023/04/22 10:41:39;;;;;;;11.57;9.15;;;;;;;17.64;67.63;100476.03;4962326;28;20031;-96
2023/04/22 10:44:21;;;;;;;40.60;29.70;;;;;;;17.69;70.16;100467.19;4958815;28;20194;-96
2023/04/22 10:46:50;;;;;;;12.27;9.40;;;;;;;17.69;68.15;100467.19;5004732;23;20054;-69
2023/04/22 10:49:21;;;;;;;12.05;8.27;;;;;;;17.57;68.48;100480.53;5126693;23;20058;-69
2023/04/22 10:51:52;;;;;;;10.75;8.02;;;;;;;17.48;67.34;100470.06;5153574;23;20046;-69
2023/04/22 10:57:08;;;;;;;15.50;11.27;;;;;;;17.23;69.76;100485.25;4993063;28;20179;-74
2023/04/22 10:59:41;;;;;;;48.05;31.35;;;;;;;17.12;68.27;100486.25;5135688;23;20069;-69
2023/04/22 11:02:08;;;;;;;17.63;13.32;;;;;;;17.00;67.25;100489.88;5150006;23;20466;-69
2023/04/22 11:07:11;;;;;;;12.30;9.25;;;;;;;16.73;69.35;100500.53;5327473;23;20026;-69
2023/04/22 11:09:42;;;;;;;11.77;9.52;;;;;;;16.65;68.87;100495.34;5174970;23;20062;-74
2023/04/22 11:14:39;;;;;;;9.95;8.40;;;;;;;16.47;68.96;100506.88;5147121;23;20058;-69
2023/04/22 11:17:05;;;;;;;9.83;8.37;;;;;;;16.41;70.01;100499.00;5154781;23;20116;-96
2023/04/22 11:19:30;;;;;;;10.50;8.07;;;;;;;16.37;71.68;100499.94;5109404;23;20025;-68
2023/04/22 11:21:57;;;;;;;12.73;9.73;;;;;;;16.28;74.08;100499.09;5095531;23;20573;-69
2023/04/22 11:24:22;;;;;;;12.65;9.10;;;;;;;16.17;76.21;100493.88;5318633;23;20059;-69
2023/04/22 11:26:48;;;;;;;12.25;8.63;;;;;;;16.05;75.26;100496.59;5379873;23;20024;-69
2023/04/22 11:29:13;;;;;;;12.05;9.10;;;;;;;15.94;79.31;100487.88;5163445;23;20592;-69
2023/04/22 11:36:45;;;;;;;11.77;9.23;;;;;;;15.70;77.77;100509.81;5143250;23;20061;-69
2023/04/22 11:42:11;;;;;;;12.65;9.68;;;;;;;15.61;79.00;100502.81;5356266;23;20623;31
2023/04/22 11:44:38;;;;;;;15.43;10.13;;;;;;;15.54;78.50;100512.50;5208480;23;20671;-69
2023/04/22 11:47:03;;;;;;;13.88;10.35;;;;;;;15.55;80.27;100521.22;5322566;23;20056;-69
2023/04/22 11:49:31;;;;;;;12.43;10.20;;;;;;;15.57;80.93;100506.34;4992557;28;20413;-70
2023/04/22 11:51:57;;;;;;;14.07;10.48;;;;;;;15.57;81.39;100508.97;5214014;23;20070;-97
2023/04/22 11:54:33;;;;;;;13.10;10.18;;;;;;;15.60;81.56;100507.22;5108360;23;20059;-70